Osku, Iran
Current Conditions -  °F | °C
As of 1:00 AM on Sunday 21 Dec 2014 (Local Time) from OITT Reporting Station
Haze Haze  
Wind Chill: 36°   Ceiling: 2000
Heat Index: 36°   Visibility: 1.8mi
Dew Point: 34°   Wind: 2mph
Humidity: 93%   Direction: NA
Pressure: 30.09"   Gusts: NA
Location:  37.91°N, 46.14°E
Report Text: OITT 202200Z VRB02KT 3000 BR OVC020 02/01 Q1019 A3010
Loading
Personal Weather Stations






























Interactive Weather Map New forecast layout! Learn more

10-Day Weather Forecast

Advertisements
Track Severe Weather on mobile